sensor_id;sensor_type;location;lat;lon;timestamp;pressure;altitude;pressure_sealevel;temperature;humidity
78745;BME280;68064;53.100;8.824;2023-04-25T00:00:41;100710.13;;;7.36;81.17
78745;BME280;68064;53.100;8.824;2023-04-25T00:01:42;100715.22;;;7.36;80.48
78745;BME280;68064;53.100;8.824;2023-04-25T00:02:44;100711.16;;;7.40;80.21
78745;BME280;68064;53.100;8.824;2023-04-25T00:03:45;100695.31;;;7.29;81.22
78745;BME280;68064;53.100;8.824;2023-04-25T00:04:46;100706.84;;;7.39;79.98
78745;BME280;68064;53.100;8.824;2023-04-25T00:05:47;100712.56;;;7.35;79.97
78745;BME280;68064;53.100;8.824;2023-04-25T00:06:50;100713.28;;;7.32;81.95
78745;BME280;68064;53.100;8.824;2023-04-25T00:07:52;100712.56;;;7.35;81.32
78745;BME280;68064;53.100;8.824;2023-04-25T00:08:53;100719.16;;;7.31;80.90
78745;BME280;68064;53.100;8.824;2023-04-25T00:09:54;100714.88;;;7.30;80.20
78745;BME280;68064;53.100;8.824;2023-04-25T00:10:56;100711.19;;;7.25;79.40
78745;BME280;68064;53.100;8.824;2023-04-25T00:12:00;100716.78;;;7.34;80.14
78745;BME280;68064;53.100;8.824;2023-04-25T00:13:02;100711.28;;;7.27;81.35
78745;BME280;68064;53.100;8.824;2023-04-25T00:14:03;100708.66;;;7.25;80.70
78745;BME280;68064;53.100;8.824;2023-04-25T00:15:06;100719.97;;;7.30;80.64
78745;BME280;68064;53.100;8.824;2023-04-25T00:16:11;100728.41;;;7.29;79.92
78745;BME280;68064;53.100;8.824;2023-04-25T00:17:14;100721.38;;;7.25;79.76
78745;BME280;68064;53.100;8.824;2023-04-25T00:18:15;100726.31;;;7.22;81.13
78745;BME280;68064;53.100;8.824;2023-04-25T00:19:19;100732.19;;;7.21;79.58
78745;BME280;68064;53.100;8.824;2023-04-25T00:20:21;100729.91;;;7.26;79.25
78745;BME280;68064;53.100;8.824;2023-04-25T00:21:22;100725.59;;;7.25;79.50
78745;BME280;68064;53.100;8.824;2023-04-25T00:22:26;100725.97;;;7.16;79.57
78745;BME280;68064;53.100;8.824;2023-04-25T00:23:27;100736.31;;;7.19;80.08
78745;BME280;68064;53.100;8.824;2023-04-25T00:24:31;100728.63;;;7.18;79.72
78745;BME280;68064;53.100;8.824;2023-04-25T00:25:36;100738.59;;;7.15;79.74
78745;BME280;68064;53.100;8.824;2023-04-25T00:26:37;100735.91;;;7.12;79.85
78745;BME280;68064;53.100;8.824;2023-04-25T00:27:38;100733.28;;;7.10;80.78
78745;BME280;68064;53.100;8.824;2023-04-25T00:28:45;100733.19;;;7.09;80.29
78745;BME280;68064;53.100;8.824;2023-04-25T00:29:47;100735.84;;;7.10;79.08
78745;BME280;68064;53.100;8.824;2023-04-25T00:30:49;100751.47;;;7.02;79.33
78745;BME280;68064;53.100;8.824;2023-04-25T00:31:52;100744.53;;;6.99;78.27
78745;BME280;68064;53.100;8.824;2023-04-25T00:32:54;100747.50;;;7.07;78.42
78745;BME280;68064;53.100;8.824;2023-04-25T00:33:55;100739.28;;;6.96;78.92
78745;BME280;68064;53.100;8.824;2023-04-25T00:34:57;100724.66;;;6.92;78.57
78745;BME280;68064;53.100;8.824;2023-04-25T00:35:58;100737.16;;;7.04;78.72
78745;BME280;68064;53.100;8.824;2023-04-25T00:37:02;100738.38;;;6.96;77.96
78745;BME280;68064;53.100;8.824;2023-04-25T00:38:05;100735.84;;;6.96;78.59
78745;BME280;68064;53.100;8.824;2023-04-25T00:39:06;100736.72;;;6.96;78.15
78745;BME280;68064;53.100;8.824;2023-04-25T00:40:09;100737.59;;;6.97;78.71
78745;BME280;68064;53.100;8.824;2023-04-25T00:41:12;100734.28;;;6.98;78.04
78745;BME280;68064;53.100;8.824;2023-04-25T00:42:13;100742.97;;;7.01;77.24
78745;BME280;68064;53.100;8.824;2023-04-25T00:43:18;100728.22;;;6.96;76.96
78745;BME280;68064;53.100;8.824;2023-04-25T00:44:24;100729.81;;;6.93;77.91
78745;BME280;68064;53.100;8.824;2023-04-25T00:45:28;100734.66;;;6.89;78.42
78745;BME280;68064;53.100;8.824;2023-04-25T00:46:30;100737.00;;;7.01;77.05
78745;BME280;68064;53.100;8.824;2023-04-25T00:47:32;100740.41;;;7.01;77.43
78745;BME280;68064;53.100;8.824;2023-04-25T00:48:34;100750.94;;;6.92;77.57
78745;BME280;68064;53.100;8.824;2023-04-25T00:49:39;100737.09;;;6.87;76.86
78745;BME280;68064;53.100;8.824;2023-04-25T00:50:41;100746.75;;;6.93;77.25
78745;BME280;68064;53.100;8.824;2023-04-25T00:51:46;100746.66;;;6.91;77.40
78745;BME280;68064;53.100;8.824;2023-04-25T00:52:48;100744.28;;;6.95;77.36
78745;BME280;68064;53.100;8.824;2023-04-25T00:53:51;100745.06;;;6.93;77.70
78745;BME280;68064;53.100;8.824;2023-04-25T00:54:52;100743.97;;;6.88;76.57
78745;BME280;68064;53.100;8.824;2023-04-25T00:55:57;100748.69;;;6.82;77.34
78745;BME280;68064;53.100;8.824;2023-04-25T00:57:04;100747.81;;;6.82;76.54
78745;BME280;68064;53.100;8.824;2023-04-25T00:58:06;100753.88;;;6.84;77.11
78745;BME280;68064;53.100;8.824;2023-04-25T00:59:08;100755.69;;;6.86;76.87
78745;BME280;68064;53.100;8.824;2023-04-25T01:00:11;100753.09;;;6.85;77.51
78745;BME280;68064;53.100;8.824;2023-04-25T01:01:13;100753.09;;;6.85;77.39
78745;BME280;68064;53.100;8.824;2023-04-25T01:02:14;100749.47;;;6.81;77.10
78745;BME280;68064;53.100;8.824;2023-04-25T01:03:19;100762.03;;;6.78;77.79
78745;BME280;68064;53.100;8.824;2023-04-25T01:04:21;100759.06;;;6.85;77.13
78745;BME280;68064;53.100;8.824;2023-04-25T01:05:25;100761.50;;;6.84;76.31
78745;BME280;68064;53.100;8.824;2023-04-25T01:06:26;100759.72;;;6.83;76.82
78745;BME280;68064;53.100;8.824;2023-04-25T01:07:28;100752.03;;;6.81;76.66
78745;BME280;68064;53.100;8.824;2023-04-25T01:08:30;100760.44;;;6.80;77.36
78745;BME280;68064;53.100;8.824;2023-04-25T01:09:33;100765.34;;;6.77;76.95
78745;BME280;68064;53.100;8.824;2023-04-25T01:10:36;100761.44;;;6.82;76.47
78745;BME280;68064;53.100;8.824;2023-04-25T01:11:39;100771.25;;;6.76;76.84
78745;BME280;68064;53.100;8.824;2023-04-25T01:12:41;100754.78;;;6.70;77.05
78745;BME280;68064;53.100;8.824;2023-04-25T01:13:44;100764.31;;;6.74;76.38
78745;BME280;68064;53.100;8.824;2023-04-25T01:14:46;100764.84;;;6.68;77.18
78745;BME280;68064;53.100;8.824;2023-04-25T01:15:53;100765.78;;;6.70;76.62
78745;BME280;68064;53.100;8.824;2023-04-25T01:16:55;100772.28;;;6.65;77.30
78745;BME280;68064;53.100;8.824;2023-04-25T01:17:57;100769.84;;;6.67;77.40
78745;BME280;68064;53.100;8.824;2023-04-25T01:19:03;100763.34;;;6.72;76.42
78745;BME280;68064;53.100;8.824;2023-04-25T01:20:07;100763.97;;;6.68;77.04
78745;BME280;68064;53.100;8.824;2023-04-25T01:21:10;100768.09;;;6.66;77.50
78745;BME280;68064;53.100;8.824;2023-04-25T01:22:14;100764.50;;;6.62;77.38
78745;BME280;68064;53.100;8.824;2023-04-25T01:23:16;100771.34;;;6.63;76.84
78745;BME280;68064;53.100;8.824;2023-04-25T01:24:17;100769.41;;;6.59;77.16
78745;BME280;68064;53.100;8.824;2023-04-25T01:25:19;100766.94;;;6.61;76.78
78745;BME280;68064;53.100;8.824;2023-04-25T01:26:21;100769.59;;;6.62;76.91
78745;BME280;68064;53.100;8.824;2023-04-25T01:27:25;100771.06;;;6.59;76.94
78745;BME280;68064;53.100;8.824;2023-04-25T01:28:29;100774.50;;;6.59;76.36
78745;BME280;68064;53.100;8.824;2023-04-25T01:29:31;100774.31;;;6.56;76.45
78745;BME280;68064;53.100;8.824;2023-04-25T01:30:34;100773.34;;;6.54;76.29
78745;BME280;68064;53.100;8.824;2023-04-25T01:31:36;100773.63;;;6.59;76.24
78745;BME280;68064;53.100;8.824;2023-04-25T01:32:40;100768.19;;;6.53;76.06
78745;BME280;68064;53.100;8.824;2023-04-25T01:33:42;100778.19;;;6.50;76.70
78745;BME280;68064;53.100;8.824;2023-04-25T01:34:43;100774.47;;;6.45;76.91
78745;BME280;68064;53.100;8.824;2023-04-25T01:35:45;100779.84;;;6.49;76.19
78745;BME280;68064;53.100;8.824;2023-04-25T01:36:49;100776.41;;;6.49;75.76
78745;BME280;68064;53.100;8.824;2023-04-25T01:37:51;100778.88;;;6.47;75.68
78745;BME280;68064;53.100;8.824;2023-04-25T01:38:56;100774.41;;;6.43;76.18
78745;BME280;68064;53.100;8.824;2023-04-25T01:39:59;100773.25;;;6.38;76.31
78745;BME280;68064;53.100;8.824;2023-04-25T01:41:01;100767.97;;;6.35;75.98
78745;BME280;68064;53.100;8.824;2023-04-25T01:42:05;100762.28;;;6.24;75.64
78745;BME280;68064;53.100;8.824;2023-04-25T01:43:09;100785.69;;;6.33;75.48
78745;BME280;68064;53.100;8.824;2023-04-25T01:44:10;100779.47;;;6.28;75.76
78745;BME280;68064;53.100;8.824;2023-04-25T01:45:16;100783.44;;;6.38;75.22
78745;BME280;68064;53.100;8.824;2023-04-25T01:46:18;100791.72;;;6.35;75.57
78745;BME280;68064;53.100;8.824;2023-04-25T01:47:19;100795.56;;;6.29;73.46
78745;BME280;68064;53.100;8.824;2023-04-25T01:48:20;100800.84;;;6.32;74.47
78745;BME280;68064;53.100;8.824;2023-04-25T01:49:22;100796.56;;;6.31;75.85
78745;BME280;68064;53.100;8.824;2023-04-25T01:50:23;100795.22;;;6.23;74.78
78745;BME280;68064;53.100;8.824;2023-04-25T01:51:25;100797.06;;;6.25;74.74
78745;BME280;68064;53.100;8.824;2023-04-25T01:52:28;100797.59;;;6.20;74.64
78745;BME280;68064;53.100;8.824;2023-04-25T01:53:32;100798.28;;;6.17;75.45
78745;BME280;68064;53.100;8.824;2023-04-25T01:54:35;100804.78;;;6.27;75.25
78745;BME280;68064;53.100;8.824;2023-04-25T01:55:37;100803.84;;;6.25;74.88
78745;BME280;68064;53.100;8.824;2023-04-25T01:56:41;100795.75;;;6.17;75.03
78745;BME280;68064;53.100;8.824;2023-04-25T01:57:44;100804.25;;;6.18;74.34
78745;BME280;68064;53.100;8.824;2023-04-25T01:58:45;100798.47;;;6.20;73.98
78745;BME280;68064;53.100;8.824;2023-04-25T01:59:46;100811.88;;;6.18;74.26
78745;BME280;68064;53.100;8.824;2023-04-25T02:00:48;100809.34;;;6.18;74.33
78745;BME280;68064;53.100;8.824;2023-04-25T02:01:50;100802.47;;;6.17;74.54
78745;BME280;68064;53.100;8.824;2023-04-25T02:02:52;100806.78;;;6.18;74.03
78745;BME280;68064;53.100;8.824;2023-04-25T02:03:53;100812.13;;;6.22;73.94
78745;BME280;68064;53.100;8.824;2023-04-25T02:04:55;100810.22;;;6.18;74.27
78745;BME280;68064;53.100;8.824;2023-04-25T02:05:56;100804.16;;;6.16;74.70
78745;BME280;68064;53.100;8.824;2023-04-25T02:06:58;100806.59;;;6.15;74.50
78745;BME280;68064;53.100;8.824;2023-04-25T02:08:01;100812.84;;;6.20;75.27
78745;BME280;68064;53.100;8.824;2023-04-25T02:09:03;100813.72;;;6.20;73.57
78745;BME280;68064;53.100;8.824;2023-04-25T02:10:08;100807.69;;;6.18;73.85
78745;BME280;68064;53.100;8.824;2023-04-25T02:11:12;100809.88;;;6.27;73.18
78745;BME280;68064;53.100;8.824;2023-04-25T02:12:13;100816.38;;;6.22;73.85
78745;BME280;68064;53.100;8.824;2023-04-25T02:13:15;100820.47;;;6.20;74.41
78745;BME280;68064;53.100;8.824;2023-04-25T02:14:18;100819.75;;;6.22;73.89
78745;BME280;68064;53.100;8.824;2023-04-25T02:15:20;100809.22;;;6.16;74.14
78745;BME280;68064;53.100;8.824;2023-04-25T02:16:23;100816.97;;;6.18;74.41
78745;BME280;68064;53.100;8.824;2023-04-25T02:17:24;100815.97;;;6.16;74.17
78745;BME280;68064;53.100;8.824;2023-04-25T02:18:26;100814.84;;;6.11;75.04
78745;BME280;68064;53.100;8.824;2023-04-25T02:19:28;100818.16;;;6.10;74.21
78745;BME280;68064;53.100;8.824;2023-04-25T02:20:30;100811.16;;;6.06;74.44
78745;BME280;68064;53.100;8.824;2023-04-25T02:21:33;100825.28;;;6.15;73.77
78745;BME280;68064;53.100;8.824;2023-04-25T02:22:34;100824.81;;;6.08;74.77
78745;BME280;68064;53.100;8.824;2023-04-25T02:23:36;100822.28;;;6.08;74.88
78745;BME280;68064;53.100;8.824;2023-04-25T02:24:43;100830.47;;;6.04;76.20
78745;BME280;68064;53.100;8.824;2023-04-25T02:25:45;100817.69;;;6.02;74.75
78745;BME280;68064;53.100;8.824;2023-04-25T02:26:46;100825.09;;;6.12;73.73
78745;BME280;68064;53.100;8.824;2023-04-25T02:27:50;100822.97;;;6.05;74.23
78745;BME280;68064;53.100;8.824;2023-04-25T02:28:52;100825.84;;;5.97;75.90
78745;BME280;68064;53.100;8.824;2023-04-25T02:29:53;100815.69;;;5.97;75.05
78745;BME280;68064;53.100;8.824;2023-04-25T02:30:54;100825.03;;;5.98;75.09
78745;BME280;68064;53.100;8.824;2023-04-25T02:31:56;100829.16;;;5.96;75.65
78745;BME280;68064;53.100;8.824;2023-04-25T02:32:58;100823.78;;;5.91;75.81
78745;BME280;68064;53.100;8.824;2023-04-25T02:33:59;100827.56;;;5.98;75.21
78745;BME280;68064;53.100;8.824;2023-04-25T02:35:01;100833.25;;;5.94;76.91
78745;BME280;68064;53.100;8.824;2023-04-25T02:36:02;100829.22;;;5.97;75.74
78745;BME280;68064;53.100;8.824;2023-04-25T02:37:04;100821.25;;;5.91;75.34
78745;BME280;68064;53.100;8.824;2023-04-25T02:38:05;100830.94;;;5.97;75.48
78745;BME280;68064;53.100;8.824;2023-04-25T02:39:07;100823.78;;;5.91;75.06
78745;BME280;68064;53.100;8.824;2023-04-25T02:40:09;100826.94;;;5.87;75.79
78745;BME280;68064;53.100;8.824;2023-04-25T02:41:11;100824.28;;;5.85;76.26
78745;BME280;68064;53.100;8.824;2023-04-25T02:42:15;100828.28;;;5.82;75.35
78745;BME280;68064;53.100;8.824;2023-04-25T02:43:17;100813.72;;;5.79;75.25
78745;BME280;68064;53.100;8.824;2023-04-25T02:44:21;100808.72;;;5.81;75.47
78745;BME280;68064;53.100;8.824;2023-04-25T02:45:22;100814.31;;;5.89;74.98
78745;BME280;68064;53.100;8.824;2023-04-25T02:46:26;100813.22;;;5.85;74.67
78745;BME280;68064;53.100;8.824;2023-04-25T02:47:28;100810.22;;;5.77;75.84
78745;BME280;68064;53.100;8.824;2023-04-25T02:48:29;100815.09;;;5.74;75.86
78745;BME280;68064;53.100;8.824;2023-04-25T02:49:30;100815.00;;;5.73;76.26
78745;BME280;68064;53.100;8.824;2023-04-25T02:50:35;100813.53;;;5.76;75.41
78745;BME280;68064;53.100;8.824;2023-04-25T02:51:36;100802.63;;;5.64;76.12
78745;BME280;68064;53.100;8.824;2023-04-25T02:52:37;100809.81;;;5.71;75.48
78745;BME280;68064;53.100;8.824;2023-04-25T02:53:39;100816.66;;;5.72;75.20
78745;BME280;68064;53.100;8.824;2023-04-25T02:54:42;100814.06;;;5.71;75.24
78745;BME280;68064;53.100;8.824;2023-04-25T02:55:43;100797.75;;;5.67;75.61
78745;BME280;68064;53.100;8.824;2023-04-25T02:56:44;100813.94;;;5.69;75.55
78745;BME280;68064;53.100;8.824;2023-04-25T02:57:46;100785.84;;;5.53;75.62
78745;BME280;68064;53.100;8.824;2023-04-25T02:58:49;100802.81;;;5.67;75.24
78745;BME280;68064;53.100;8.824;2023-04-25T02:59:51;100812.78;;;5.64;75.17
78745;BME280;68064;53.100;8.824;2023-04-25T03:00:52;100806.66;;;5.61;75.64
78745;BME280;68064;53.100;8.824;2023-04-25T03:01:54;100790.34;;;5.57;74.56
78745;BME280;68064;53.100;8.824;2023-04-25T03:02:55;100805.94;;;5.63;75.00
78745;BME280;68064;53.100;8.824;2023-04-25T03:03:56;100802.44;;;5.61;75.17
78745;BME280;68064;53.100;8.824;2023-04-25T03:05:01;100795.41;;;5.57;75.94
78745;BME280;68064;53.100;8.824;2023-04-25T03:06:05;100803.91;;;5.58;74.58
78745;BME280;68064;53.100;8.824;2023-04-25T03:07:06;100812.31;;;5.57;74.25
78745;BME280;68064;53.100;8.824;2023-04-25T03:08:07;100805.28;;;5.53;74.63
78745;BME280;68064;53.100;8.824;2023-04-25T03:09:08;100800.59;;;5.46;74.43
78745;BME280;68064;53.100;8.824;2023-04-25T03:10:10;100806.16;;;5.53;74.50
78745;BME280;68064;53.100;8.824;2023-04-25T03:11:12;100805.19;;;5.51;74.67
78745;BME280;68064;53.100;8.824;2023-04-25T03:12:13;100811.81;;;5.49;74.91
78745;BME280;68064;53.100;8.824;2023-04-25T03:13:14;100811.56;;;5.45;75.30
78745;BME280;68064;53.100;8.824;2023-04-25T03:14:15;100805.91;;;5.49;75.42
78745;BME280;68064;53.100;8.824;2023-04-25T03:15:16;100816.44;;;5.55;74.77
78745;BME280;68064;53.100;8.824;2023-04-25T03:16:17;100818.84;;;5.53;74.51
78745;BME280;68064;53.100;8.824;2023-04-25T03:17:18;100816.13;;;5.50;74.81
78745;BME280;68064;53.100;8.824;2023-04-25T03:18:20;100831.28;;;5.49;75.00
78745;BME280;68064;53.100;8.824;2023-04-25T03:19:24;100819.81;;;5.55;74.44
78745;BME280;68064;53.100;8.824;2023-04-25T03:20:25;100827.25;;;5.52;74.08
78745;BME280;68064;53.100;8.824;2023-04-25T03:21:26;100832.44;;;5.54;74.89
78745;BME280;68064;53.100;8.824;2023-04-25T03:22:27;100823.38;;;5.44;74.75
78745;BME280;68064;53.100;8.824;2023-04-25T03:23:28;100821.00;;;5.47;75.17
78745;BME280;68064;53.100;8.824;2023-04-25T03:24:29;100822.66;;;5.47;74.95
78745;BME280;68064;53.100;8.824;2023-04-25T03:25:32;100829.78;;;5.52;73.68
78745;BME280;68064;53.100;8.824;2023-04-25T03:26:33;100819.38;;;5.48;73.35
78745;BME280;68064;53.100;8.824;2023-04-25T03:27:34;100835.38;;;5.47;74.77
78745;BME280;68064;53.100;8.824;2023-04-25T03:28:35;100836.34;;;5.49;74.11
78745;BME280;68064;53.100;8.824;2023-04-25T03:29:36;100824.50;;;5.49;73.67
78745;BME280;68064;53.100;8.824;2023-04-25T03:30:37;100827.75;;;5.47;74.61
78745;BME280;68064;53.100;8.824;2023-04-25T03:31:38;100833.72;;;5.47;74.62
78745;BME280;68064;53.100;8.824;2023-04-25T03:32:39;100825.91;;;5.44;74.97
78745;BME280;68064;53.100;8.824;2023-04-25T03:33:40;100812.84;;;5.38;74.34
78745;BME280;68064;53.100;8.824;2023-04-25T03:34:41;100829.41;;;5.46;74.53
78745;BME280;68064;53.100;8.824;2023-04-25T03:35:42;100825.91;;;5.44;74.66
78745;BME280;68064;53.100;8.824;2023-04-25T03:36:44;100818.41;;;5.32;74.71
78745;BME280;68064;53.100;8.824;2023-04-25T03:37:45;100830.78;;;5.41;75.16
78745;BME280;68064;53.100;8.824;2023-04-25T03:38:46;100829.13;;;5.42;74.40
78745;BME280;68064;53.100;8.824;2023-04-25T03:39:47;100835.88;;;5.41;74.53
78745;BME280;68064;53.100;8.824;2023-04-25T03:40:49;100836.63;;;5.40;74.54
78745;BME280;68064;53.100;8.824;2023-04-25T03:41:51;100822.69;;;5.33;74.96
78745;BME280;68064;53.100;8.824;2023-04-25T03:42:52;100826.09;;;5.34;74.81
78745;BME280;68064;53.100;8.824;2023-04-25T03:43:53;100840.94;;;5.41;75.04
78745;BME280;68064;53.100;8.824;2023-04-25T03:44:54;100837.91;;;5.47;73.73
78745;BME280;68064;53.100;8.824;2023-04-25T03:45:55;100829.41;;;5.46;73.54
78745;BME280;68064;53.100;8.824;2023-04-25T03:46:56;100839.38;;;5.43;73.90
78745;BME280;68064;53.100;8.824;2023-04-25T03:47:57;100832.44;;;5.41;74.89
78745;BME280;68064;53.100;8.824;2023-04-25T03:48:58;100834.03;;;5.39;74.38
78745;BME280;68064;53.100;8.824;2023-04-25T03:49:59;100838.22;;;5.38;74.29
78745;BME280;68064;53.100;8.824;2023-04-25T03:51:00;100831.88;;;5.31;74.38
78745;BME280;68064;53.100;8.824;2023-04-25T03:52:02;100840.56;;;5.35;73.94
78745;BME280;68064;53.100;8.824;2023-04-25T03:53:04;100843.28;;;5.38;73.73
78745;BME280;68064;53.100;8.824;2023-04-25T03:54:05;100845.72;;;5.37;73.94
78745;BME280;68064;53.100;8.824;2023-04-25T03:55:06;100843.09;;;5.35;73.99
78745;BME280;68064;53.100;8.824;2023-04-25T03:56:10;100848.25;;;5.37;73.91
78745;BME280;68064;53.100;8.824;2023-04-25T03:57:11;100849.72;;;5.33;73.96
78745;BME280;68064;53.100;8.824;2023-04-25T03:58:13;100848.75;;;5.31;74.36
78745;BME280;68064;53.100;8.824;2023-04-25T03:59:14;100847.19;;;5.33;73.62
78745;BME280;68064;53.100;8.824;2023-04-25T04:00:15;100847.09;;;5.31;73.96
78745;BME280;68064;53.100;8.824;2023-04-25T04:01:16;100853.63;;;5.28;74.46
78745;BME280;68064;53.100;8.824;2023-04-25T04:02:17;100851.97;;;5.28;74.01
78745;BME280;68064;53.100;8.824;2023-04-25T04:03:18;100855.00;;;5.23;74.30
78745;BME280;68064;53.100;8.824;2023-04-25T04:04:19;100858.50;;;5.25;73.55
78745;BME280;68064;53.100;8.824;2023-04-25T04:05:20;100864.16;;;5.21;74.61
78745;BME280;68064;53.100;8.824;2023-04-25T04:06:21;100853.25;;;5.22;73.38
78745;BME280;68064;53.100;8.824;2023-04-25T04:07:22;100839.97;;;5.13;73.66
78745;BME280;68064;53.100;8.824;2023-04-25T04:08:24;100856.28;;;5.16;73.97
78745;BME280;68064;53.100;8.824;2023-04-25T04:09:25;100855.97;;;5.12;73.87
78745;BME280;68064;53.100;8.824;2023-04-25T04:10:26;100869.41;;;5.11;74.97
78745;BME280;68064;53.100;8.824;2023-04-25T04:11:28;100867.75;;;5.11;73.99
78745;BME280;68064;53.100;8.824;2023-04-25T04:12:29;100863.78;;;5.15;73.12
78745;BME280;68064;53.100;8.824;2023-04-25T04:13:30;100857.63;;;5.11;73.23
78745;BME280;68064;53.100;8.824;2023-04-25T04:14:32;100875.69;;;5.16;73.06
78745;BME280;68064;53.100;8.824;2023-04-25T04:15:33;100871.00;;;5.09;72.56
78745;BME280;68064;53.100;8.824;2023-04-25T04:16:34;100868.66;;;5.12;72.55
78745;BME280;68064;53.100;8.824;2023-04-25T04:17:35;100861.22;;;5.02;72.97
78745;BME280;68064;53.100;8.824;2023-04-25T04:18:36;100867.84;;;5.00;73.83
78745;BME280;68064;53.100;8.824;2023-04-25T04:19:37;100860.06;;;4.97;72.84
78745;BME280;68064;53.100;8.824;2023-04-25T04:20:38;100876.56;;;5.03;72.93
78745;BME280;68064;53.100;8.824;2023-04-25T04:21:40;100884.72;;;4.99;73.19
78745;BME280;68064;53.100;8.824;2023-04-25T04:22:41;100888.16;;;5.00;73.36
78745;BME280;68064;53.100;8.824;2023-04-25T04:23:42;100885.22;;;4.94;73.55
78745;BME280;68064;53.100;8.824;2023-04-25T04:24:43;100880.84;;;4.91;73.70
78745;BME280;68064;53.100;8.824;2023-04-25T04:25:45;100882.47;;;4.91;73.37
78745;BME280;68064;53.100;8.824;2023-04-25T04:26:47;100885.78;;;4.90;73.57
78745;BME280;68064;53.100;8.824;2023-04-25T04:27:48;100892.16;;;4.96;73.99
78745;BME280;68064;53.100;8.824;2023-04-25T04:28:50;100889.41;;;4.93;72.93
78745;BME280;68064;53.100;8.824;2023-04-25T04:29:51;100891.25;;;4.96;73.01
78745;BME280;68064;53.100;8.824;2023-04-25T04:30:52;100892.63;;;4.91;72.85
78745;BME280;68064;53.100;8.824;2023-04-25T04:31:53;100886.06;;;4.81;73.55
78745;BME280;68064;53.100;8.824;2023-04-25T04:32:55;100906.97;;;4.90;73.50
78745;BME280;68064;53.100;8.824;2023-04-25T04:33:56;100897.50;;;4.88;73.60
78745;BME280;68064;53.100;8.824;2023-04-25T04:34:57;100900.91;;;4.88;73.51
78745;BME280;68064;53.100;8.824;2023-04-25T04:35:58;100899.44;;;4.92;73.09
78745;BME280;68064;53.100;8.824;2023-04-25T04:36:59;100904.50;;;4.92;73.40
78745;BME280;68064;53.100;8.824;2023-04-25T04:38:00;100896.81;;;4.90;73.03
78745;BME280;68064;53.100;8.824;2023-04-25T04:39:05;100909.78;;;4.95;73.66
78745;BME280;68064;53.100;8.824;2023-04-25T04:40:07;100915.75;;;4.95;73.54
78745;BME280;68064;53.100;8.824;2023-04-25T04:41:09;100911.66;;;4.97;72.81
78745;BME280;68064;53.100;8.824;2023-04-25T04:42:11;100908.31;;;4.98;73.49
78745;BME280;68064;53.100;8.824;2023-04-25T04:43:13;100894.38;;;4.92;72.57
78745;BME280;68064;53.100;8.824;2023-04-25T04:44:14;100908.44;;;5.00;73.63
78745;BME280;68064;53.100;8.824;2023-04-25T04:45:15;100914.19;;;4.97;72.86
78745;BME280;68064;53.100;8.824;2023-04-25T04:46:16;100908.66;;;5.03;72.73
78745;BME280;68064;53.100;8.824;2023-04-25T04:47:17;100901.31;;;4.94;72.94
78745;BME280;68064;53.100;8.824;2023-04-25T04:48:18;100911.66;;;4.97;73.38
78745;BME280;68064;53.100;8.824;2023-04-25T04:49:19;100912.75;;;5.01;72.06
78745;BME280;68064;53.100;8.824;2023-04-25T04:50:20;100910.88;;;4.98;72.22
78745;BME280;68064;53.100;8.824;2023-04-25T04:51:22;100911.19;;;5.03;72.03
78745;BME280;68064;53.100;8.824;2023-04-25T04:52:23;100929.25;;;5.07;71.55
78745;BME280;68064;53.100;8.824;2023-04-25T04:53:24;100913.81;;;5.04;72.39
78745;BME280;68064;53.100;8.824;2023-04-25T04:54:25;100918.88;;;5.04;72.10
78745;BME280;68064;53.100;8.824;2023-04-25T04:55:27;100913.53;;;5.00;72.77
78745;BME280;68064;53.100;8.824;2023-04-25T04:56:29;100916.94;;;5.00;72.79
78745;BME280;68064;53.100;8.824;2023-04-25T04:57:32;100927.16;;;5.02;73.01
78745;BME280;68064;53.100;8.824;2023-04-25T04:58:33;100905.31;;;4.91;73.25
78745;BME280;68064;53.100;8.824;2023-04-25T04:59:35;100915.09;;;4.98;73.06
78745;BME280;68064;53.100;8.824;2023-04-25T05:00:36;100924.94;;;5.06;72.37
78745;BME280;68064;53.100;8.824;2023-04-25T05:01:37;100928.47;;;5.08;72.25
78745;BME280;68064;53.100;8.824;2023-04-25T05:02:38;100934.41;;;5.09;74.05
78745;BME280;68064;53.100;8.824;2023-04-25T05:03:40;100932.06;;;5.12;72.21
78745;BME280;68064;53.100;8.824;2023-04-25T05:04:41;100923.38;;;5.08;72.21
78745;BME280;68064;53.100;8.824;2023-04-25T05:05:42;100927.13;;;5.13;72.66
78745;BME280;68064;53.100;8.824;2023-04-25T05:06:44;100936.47;;;5.14;72.87
78745;BME280;68064;53.100;8.824;2023-04-25T05:07:44;100936.59;;;5.16;72.83
78745;BME280;68064;53.100;8.824;2023-04-25T05:08:46;100928.97;;;5.16;72.14
78745;BME280;68064;53.100;8.824;2023-04-25T05:09:47;100935.22;;;5.21;71.46
78745;BME280;68064;53.100;8.824;2023-04-25T05:10:49;100930.94;;;5.20;71.90
78745;BME280;68064;53.100;8.824;2023-04-25T05:11:51;100935.00;;;5.18;71.74
78745;BME280;68064;53.100;8.824;2023-04-25T05:12:53;100930.13;;;5.21;71.78
78745;BME280;68064;53.100;8.824;2023-04-25T05:13:54;100936.41;;;5.26;71.28
78745;BME280;68064;53.100;8.824;2023-04-25T05:14:55;100935.41;;;5.24;71.04
78745;BME280;68064;53.100;8.824;2023-04-25T05:15:57;100930.34;;;5.24;71.25
78745;BME280;68064;53.100;8.824;2023-04-25T05:16:58;100942.13;;;5.23;72.09
78745;BME280;68064;53.100;8.824;2023-04-25T05:18:00;100938.75;;;5.23;71.02
78745;BME280;68064;53.100;8.824;2023-04-25T05:19:03;100936.09;;;5.21;71.72
78745;BME280;68064;53.100;8.824;2023-04-25T05:20:14;100938.25;;;5.28;72.00
78745;BME280;68064;53.100;8.824;2023-04-25T05:21:15;100936.59;;;5.29;71.70
78745;BME280;68064;53.100;8.824;2023-04-25T05:22:16;100946.06;;;5.31;71.99
78745;BME280;68064;53.100;8.824;2023-04-25T05:23:17;100948.41;;;5.28;71.73
78745;BME280;68064;53.100;8.824;2023-04-25T05:24:18;100930.06;;;5.19;71.23
78745;BME280;68064;53.100;8.824;2023-04-25T05:25:19;100932.41;;;5.29;71.32
78745;BME280;68064;53.100;8.824;2023-04-25T05:26:20;100937.56;;;5.31;71.31
78745;BME280;68064;53.100;8.824;2023-04-25T05:27:22;100932.50;;;5.31;71.78
78745;BME280;68064;53.100;8.824;2023-04-25T05:28:25;100932.81;;;5.36;70.73